createdAt,value
2022-11-15T00:00:35.904Z,100877.72
2022-11-15T00:03:23.808Z,100866.84
2022-11-15T00:06:09.820Z,100867.13
2022-11-15T00:08:55.050Z,100860.97
2022-11-15T00:11:40.271Z,100871.47
2022-11-15T00:14:25.498Z,100867.81
2022-11-15T00:17:10.678Z,100864.34
2022-11-15T00:19:55.945Z,100854.34
2022-11-15T00:22:41.382Z,100851.59
2022-11-15T00:25:26.538Z,100858.06
2022-11-15T00:28:11.789Z,100843.63
2022-11-15T00:31:06.720Z,100833.09
2022-11-15T00:33:51.840Z,100834.47
2022-11-15T00:36:37.233Z,100844.66
2022-11-15T00:39:23.225Z,100834.06
2022-11-15T00:42:08.303Z,100827.63
2022-11-15T00:44:53.529Z,100823.19
2022-11-15T00:47:38.979Z,100826.00
2022-11-15T00:50:24.298Z,100824.13
2022-11-15T00:53:09.526Z,100835.00
2022-11-15T00:55:54.921Z,100835.09
2022-11-15T00:58:40.465Z,100833.69
2022-11-15T01:01:25.783Z,100826.91
2022-11-15T01:04:11.465Z,100825.75
2022-11-15T01:06:57.064Z,100824.03
2022-11-15T01:09:42.368Z,100818.00
2022-11-15T01:12:27.922Z,100827.34
2022-11-15T01:15:13.499Z,100811.91
2022-11-15T01:17:58.696Z,100812.34
2022-11-15T01:20:44.340Z,100804.53
2022-11-15T01:23:30.331Z,100801.06
2022-11-15T01:26:16.588Z,100798.25
2022-11-15T01:29:01.903Z,100796.41
2022-11-15T01:31:47.328Z,100799.28
2022-11-15T01:34:32.435Z,100791.94
2022-11-15T01:37:17.549Z,100787.78
2022-11-15T01:58:02.178Z,100762.09
2022-11-15T02:00:48.903Z,100758.53
2022-11-15T02:03:45.301Z,100763.72
2022-11-15T02:06:31.143Z,100760.66
2022-11-15T02:09:17.652Z,100759.88
2022-11-15T02:12:03.366Z,100743.81
2022-11-15T02:14:53.782Z,100745.91
2022-11-15T02:18:37.907Z,100745.41
2022-11-15T02:22:17.328Z,100742.72
2022-11-15T02:25:30.007Z,100736.53
2022-11-15T02:28:18.479Z,100741.97
2022-11-15T02:31:22.249Z,100735.72
2022-11-15T02:34:37.689Z,100739.50
2022-11-15T02:37:52.604Z,100732.84
2022-11-15T02:40:52.708Z,100733.22
2022-11-15T02:44:01.757Z,100728.31
2022-11-15T02:47:16.397Z,100719.91
2022-11-15T02:50:07.707Z,100716.59
2022-11-15T02:52:53.410Z,100712.34
2022-11-15T02:55:44.273Z,100704.13
2022-11-15T02:58:47.540Z,100713.13
2022-11-15T03:01:46.442Z,100714.84
2022-11-15T03:04:40.233Z,100710.97
2022-11-15T03:07:45.203Z,100708.63
2022-11-15T03:10:50.468Z,100717.53
2022-11-15T03:13:45.162Z,100712.69
2022-11-15T03:16:42.942Z,100711.88
2022-11-15T03:19:34.283Z,100717.59
2022-11-15T03:22:23.856Z,100712.22
2022-11-15T03:25:15.056Z,100703.25
2022-11-15T03:28:05.667Z,100710.63
2022-11-15T03:30:54.488Z,100703.72
2022-11-15T03:33:40.828Z,100704.16
2022-11-15T03:36:28.075Z,100707.44
2022-11-15T03:39:20.173Z,100699.25
2022-11-15T03:42:33.568Z,100700.28
2022-11-15T03:45:23.068Z,100706.47
2022-11-15T03:48:15.066Z,100700.50
2022-11-15T03:51:00.883Z,100698.06
2022-11-15T03:53:46.951Z,100696.66
2022-11-15T03:56:32.359Z,100701.31
2022-11-15T03:59:17.712Z,100690.75
2022-11-15T04:02:03.083Z,100682.91
2022-11-15T04:04:48.236Z,100676.25
2022-11-15T04:07:33.292Z,100683.94
2022-11-15T04:10:19.244Z,100674.00
2022-11-15T04:13:04.447Z,100682.06
2022-11-15T04:15:49.977Z,100667.91
2022-11-15T04:18:35.465Z,100667.47
2022-11-15T04:21:39.544Z,100669.84
2022-11-15T04:24:24.514Z,100668.28
2022-11-15T04:27:10.036Z,100665.78
2022-11-15T04:29:55.352Z,100673.34
2022-11-15T04:32:40.802Z,100666.81
2022-11-15T04:35:26.276Z,100666.38
2022-11-15T04:38:12.816Z,100664.06
2022-11-15T04:40:58.179Z,100668.72
2022-11-15T04:43:43.400Z,100662.13
2022-11-15T04:46:29.058Z,100672.41
2022-11-15T04:49:14.374Z,100682.41
2022-11-15T04:52:00.168Z,100669.53
2022-11-15T04:54:45.722Z,100679.88
2022-11-15T04:57:31.104Z,100666.47
2022-11-15T05:00:17.966Z,100670.16
2022-11-15T05:03:21.668Z,100672.00
2022-11-15T05:06:07.656Z,100661.06
2022-11-15T05:08:53.207Z,100670.78
2022-11-15T05:11:38.689Z,100670.69
2022-11-15T05:14:24.205Z,100667.97
2022-11-15T05:17:09.600Z,100660.28
2022-11-15T05:19:56.221Z,100663.47
2022-11-15T05:22:41.653Z,100665.13
2022-11-15T05:25:27.141Z,100669.34
2022-11-15T05:28:12.430Z,100647.34
2022-11-15T05:31:02.764Z,100650.31
2022-11-15T05:33:48.075Z,100648.97
2022-11-15T05:36:43.619Z,100654.06
2022-11-15T05:39:28.904Z,100654.94
2022-11-15T05:42:16.122Z,100648.72
2022-11-15T05:45:03.783Z,100648.72
2022-11-15T05:47:50.308Z,100651.63
2022-11-15T05:50:39.718Z,100655.75
2022-11-15T05:53:26.914Z,100651.38
2022-11-15T05:56:13.479Z,100649.44
2022-11-15T05:59:00.060Z,100650.00
2022-11-15T06:01:46.129Z,100654.13
2022-11-15T06:04:31.719Z,100656.13
2022-11-15T06:07:17.112Z,100657.66
2022-11-15T06:10:02.916Z,100658.56
2022-11-15T06:12:48.030Z,100658.94
2022-11-15T06:15:35.356Z,100670.56
2022-11-15T06:18:20.479Z,100665.78
2022-11-15T06:21:06.293Z,100667.56
2022-11-15T06:23:51.637Z,100672.41
2022-11-15T06:26:36.989Z,100677.50
2022-11-15T06:29:22.384Z,100671.28
2022-11-15T06:32:07.788Z,100667.72
2022-11-15T06:34:52.929Z,100674.19
2022-11-15T06:37:38.444Z,100681.78
2022-11-15T06:40:23.815Z,100676.63
2022-11-15T06:43:09.267Z,100685.34
2022-11-15T06:45:54.590Z,100693.75
2022-11-15T06:48:39.705Z,100685.41
2022-11-15T06:51:24.776Z,100692.81
2022-11-15T06:54:10.188Z,100686.72
2022-11-15T06:56:55.615Z,100695.88
2022-11-15T06:59:40.947Z,100681.59
2022-11-15T07:02:26.818Z,100689.53
2022-11-15T07:05:12.442Z,100690.72
2022-11-15T07:07:59.082Z,100691.31
2022-11-15T07:10:44.600Z,100678.06
2022-11-15T07:13:34.686Z,100673.59
2022-11-15T07:16:20.651Z,100685.06
2022-11-15T07:19:06.072Z,100684.91
2022-11-15T07:21:51.209Z,100682.22
2022-11-15T07:24:36.238Z,100683.34
2022-11-15T07:27:21.758Z,100678.22
2022-11-15T07:30:07.606Z,100690.91
2022-11-15T07:32:55.037Z,100691.13
2022-11-15T07:35:40.294Z,100690.44
2022-11-15T07:38:25.649Z,100691.63
2022-11-15T07:41:11.132Z,100699.63
2022-11-15T07:43:56.389Z,100697.81
2022-11-15T07:46:41.818Z,100700.69
2022-11-15T07:49:27.070Z,100695.34
2022-11-15T07:52:12.214Z,100697.81
2022-11-15T07:54:57.606Z,100688.75
2022-11-15T07:57:43.032Z,100682.44
2022-11-15T08:00:28.740Z,100685.66
2022-11-15T08:03:16.566Z,100698.66
2022-11-15T08:06:02.183Z,100689.66
2022-11-15T08:08:48.336Z,100688.09
2022-11-15T08:11:33.503Z,100695.78
2022-11-15T08:14:18.961Z,100697.78
2022-11-15T08:17:04.365Z,100697.13
2022-11-15T08:19:49.424Z,100693.94
2022-11-15T08:22:35.028Z,100689.06
2022-11-15T08:25:20.193Z,100685.41
2022-11-15T08:28:07.943Z,100686.50
2022-11-15T08:30:53.072Z,100688.16
2022-11-15T08:33:38.319Z,100689.97
2022-11-15T08:36:23.862Z,100688.16
2022-11-15T08:39:13.579Z,100694.09
2022-11-15T08:41:59.424Z,100690.91
2022-11-15T08:44:44.522Z,100701.63
2022-11-15T08:47:29.836Z,100693.00
2022-11-15T08:50:15.625Z,100689.97
2022-11-15T08:53:09.546Z,100684.16
2022-11-15T08:55:54.758Z,100679.50
2022-11-15T08:58:40.291Z,100691.88
2022-11-15T09:01:25.916Z,100677.06
2022-11-15T09:04:11.215Z,100681.91
2022-11-15T09:06:57.032Z,100672.94
2022-11-15T09:09:42.708Z,100674.00
2022-11-15T09:12:28.087Z,100674.28
2022-11-15T09:15:13.546Z,100674.25
2022-11-15T09:18:00.504Z,100674.28
2022-11-15T09:20:45.686Z,100671.25
2022-11-15T09:23:31.397Z,100665.41
2022-11-15T09:26:16.425Z,100663.66
2022-11-15T09:29:02.475Z,100660.44
2022-11-15T09:31:47.955Z,100663.91
2022-11-15T09:34:33.305Z,100658.06
2022-11-15T09:37:18.766Z,100659.59
2022-11-15T09:40:04.754Z,100666.69
2022-11-15T09:43:01.743Z,100663.69
2022-11-15T09:46:12.831Z,100673.28
2022-11-15T09:49:02.297Z,100667.84
2022-11-15T09:51:35.698Z,100662.91
2022-11-15T09:57:07.056Z,100664.31
2022-11-15T10:00:45.338Z,100665.06
